createdAt,value
2023-03-13T00:00:20.098Z,2.60
2023-03-13T00:02:47.981Z,3.83
2023-03-13T00:05:15.686Z,3.10
2023-03-13T00:07:44.840Z,2.72
2023-03-13T00:10:12.854Z,2.85
2023-03-13T00:12:40.553Z,3.50
2023-03-13T00:15:09.592Z,2.70
2023-03-13T00:17:37.447Z,3.13
2023-03-13T00:20:07.428Z,2.58
2023-03-13T00:22:35.098Z,2.00
2023-03-13T00:25:04.224Z,2.40
2023-03-13T00:27:34.942Z,2.45
2023-03-13T00:30:02.619Z,1.67
2023-03-13T00:32:30.443Z,2.60
2023-03-13T00:34:58.121Z,2.10
2023-03-13T00:37:25.799Z,2.15
2023-03-13T00:39:53.509Z,2.20
2023-03-13T00:42:23.452Z,1.80
2023-03-13T00:44:51.157Z,2.42
2023-03-13T00:47:18.930Z,2.10
2023-03-13T00:49:46.623Z,2.15
2023-03-13T00:52:14.334Z,2.70
2023-03-13T00:54:42.121Z,2.42
2023-03-13T00:57:10.031Z,2.53
2023-03-13T00:59:39.322Z,3.55
2023-03-13T01:02:07.036Z,2.90
2023-03-13T01:04:34.805Z,2.60
2023-03-13T01:07:02.470Z,2.60
2023-03-13T01:09:30.155Z,3.20
2023-03-13T01:11:57.920Z,3.15
2023-03-13T01:14:25.672Z,2.60
2023-03-13T01:16:54.700Z,2.97
2023-03-13T01:19:22.417Z,2.70
2023-03-13T01:21:50.137Z,2.97
2023-03-13T01:24:19.159Z,2.72
2023-03-13T01:26:46.919Z,2.90
2023-03-13T01:29:14.651Z,3.20
2023-03-13T01:31:42.564Z,2.65
2023-03-13T01:34:12.519Z,2.95
2023-03-13T01:36:40.209Z,2.42
2023-03-13T01:39:08.200Z,3.25
2023-03-13T01:41:36.076Z,2.58
2023-03-13T01:44:04.649Z,2.42
2023-03-13T01:46:32.627Z,2.53
2023-03-13T01:49:04.010Z,3.33
2023-03-13T01:51:36.266Z,2.45
2023-03-13T01:54:08.726Z,2.30
2023-03-13T01:56:40.933Z,2.80
2023-03-13T01:59:11.741Z,2.65
2023-03-13T02:01:39.991Z,2.70
2023-03-13T02:04:08.407Z,2.60
2023-03-13T02:06:42.466Z,2.50
2023-03-13T02:09:15.308Z,2.20
2023-03-13T02:14:14.707Z,2.00
2023-03-13T02:16:47.701Z,2.30
2023-03-13T02:19:19.637Z,2.08
2023-03-13T02:21:54.089Z,2.20
2023-03-13T02:24:30.552Z,2.30
2023-03-13T02:26:59.610Z,4.18
2023-03-13T02:29:27.501Z,2.20
2023-03-13T02:31:55.239Z,2.42
2023-03-13T02:34:29.824Z,2.53
2023-03-13T02:36:59.423Z,2.20
2023-03-13T02:39:29.385Z,2.40
2023-03-13T02:41:57.850Z,2.20
2023-03-13T02:44:26.994Z,2.22
2023-03-13T02:46:54.752Z,2.10
2023-03-13T02:49:25.189Z,2.03
2023-03-13T02:51:54.773Z,2.25
2023-03-13T02:54:25.491Z,1.98
2023-03-13T02:56:57.225Z,2.08
2023-03-13T02:59:26.790Z,2.00
2023-03-13T03:01:54.924Z,2.00
2023-03-13T03:04:23.681Z,1.92
2023-03-13T03:06:52.329Z,2.15
2023-03-13T03:09:20.968Z,2.00
2023-03-13T03:11:48.666Z,1.80
2023-03-13T03:14:16.776Z,1.85
2023-03-13T03:16:46.347Z,2.10
2023-03-13T03:19:14.201Z,1.75
2023-03-13T03:21:42.034Z,1.85
2023-03-13T03:24:10.122Z,1.65
2023-03-13T03:26:38.104Z,2.10
2023-03-13T03:29:05.825Z,1.50
2023-03-13T03:31:33.540Z,2.25
2023-03-13T03:34:02.629Z,2.28
2023-03-13T03:36:30.890Z,2.50
2023-03-13T03:38:59.126Z,2.20
2023-03-13T03:41:27.040Z,1.50
2023-03-13T03:43:54.732Z,1.85
2023-03-13T03:46:22.365Z,1.70
2023-03-13T03:48:50.105Z,1.83
2023-03-13T03:51:19.165Z,1.75
2023-03-13T03:53:46.837Z,2.67
2023-03-13T03:56:15.094Z,1.90
2023-03-13T03:58:42.797Z,1.90
2023-03-13T04:01:10.609Z,1.77
2023-03-13T04:03:38.331Z,2.78
2023-03-13T04:06:07.027Z,2.08
2023-03-13T04:08:36.207Z,2.00
2023-03-13T04:11:03.954Z,2.08
2023-03-13T04:13:31.620Z,2.00
2023-03-13T04:15:59.507Z,2.40
2023-03-13T04:18:27.279Z,2.00
2023-03-13T04:21:01.946Z,2.05
2023-03-13T04:23:29.667Z,1.88
2023-03-13T04:25:58.983Z,2.03
2023-03-13T04:28:26.760Z,1.98
2023-03-13T04:30:57.434Z,2.10
2023-03-13T04:33:25.504Z,1.95
2023-03-13T04:35:53.316Z,2.30
2023-03-13T04:38:21.180Z,1.98
2023-03-13T04:40:48.968Z,2.38
2023-03-13T04:43:17.992Z,2.00
2023-03-13T04:45:46.524Z,1.95
2023-03-13T04:48:14.676Z,1.88
2023-03-13T04:50:42.520Z,1.80
2023-03-13T04:53:10.206Z,1.70
2023-03-13T04:55:37.872Z,2.20
2023-03-13T04:58:05.648Z,2.55
2023-03-13T05:00:34.657Z,2.33
2023-03-13T05:03:02.412Z,1.67
2023-03-13T05:05:30.248Z,2.05
2023-03-13T05:07:58.145Z,2.03
2023-03-13T05:10:25.871Z,2.00
2023-03-13T05:12:53.551Z,2.03
2023-03-13T05:15:21.295Z,1.80
2023-03-13T05:17:50.781Z,1.85
2023-03-13T05:20:19.493Z,2.00
2023-03-13T05:22:47.292Z,1.95
2023-03-13T05:25:15.020Z,2.17
2023-03-13T05:27:42.706Z,1.70
2023-03-13T05:30:12.909Z,1.67
2023-03-13T05:32:40.678Z,1.50
2023-03-13T05:35:10.150Z,1.73
2023-03-13T05:37:40.802Z,1.35
2023-03-13T05:40:10.576Z,2.45
2023-03-13T05:42:38.327Z,1.60
2023-03-13T05:45:08.796Z,1.77
2023-03-13T05:47:38.649Z,1.25
2023-03-13T05:50:09.618Z,1.38
2023-03-13T05:52:37.315Z,1.60
2023-03-13T05:55:05.681Z,2.00
2023-03-13T05:57:33.436Z,1.45
2023-03-13T06:00:01.179Z,1.50
2023-03-13T06:02:29.098Z,1.40
2023-03-13T06:04:56.964Z,1.17
2023-03-13T06:07:26.154Z,1.20
2023-03-13T06:09:53.865Z,1.20
2023-03-13T06:12:21.542Z,1.23
2023-03-13T06:14:49.242Z,1.20
2023-03-13T06:17:16.981Z,1.00
2023-03-13T06:19:44.769Z,1.10
2023-03-13T06:22:12.740Z,0.98
2023-03-13T06:24:44.629Z,1.17
2023-03-13T06:27:12.661Z,1.00
2023-03-13T06:29:40.365Z,0.90
2023-03-13T06:32:08.737Z,1.00
2023-03-13T06:34:36.658Z,0.98
2023-03-13T06:37:04.846Z,0.82
2023-03-13T06:39:32.540Z,0.93
2023-03-13T06:42:01.577Z,0.73
2023-03-13T06:44:29.327Z,0.80
2023-03-13T06:46:57.195Z,0.70
2023-03-13T06:49:25.005Z,0.70
2023-03-13T06:51:52.687Z,1.00
2023-03-13T06:54:20.511Z,0.70
2023-03-13T06:56:48.487Z,0.88
2023-03-13T06:59:17.588Z,0.75
2023-03-13T07:01:46.075Z,0.80
2023-03-13T07:04:14.726Z,1.00
2023-03-13T07:06:42.586Z,1.00
2023-03-13T07:09:10.893Z,0.95
2023-03-13T07:11:38.805Z,0.80
2023-03-13T07:14:16.517Z,1.02
2023-03-13T07:16:46.711Z,0.80
2023-03-13T07:19:15.249Z,0.90
2023-03-13T07:21:44.132Z,1.00
2023-03-13T07:24:12.075Z,0.95
2023-03-13T07:26:42.613Z,1.00
2023-03-13T07:29:16.693Z,1.00
2023-03-13T07:31:46.723Z,1.50
2023-03-13T07:34:15.692Z,1.10
2023-03-13T07:36:43.874Z,1.02
2023-03-13T07:39:11.717Z,0.90
2023-03-13T07:41:40.217Z,1.30
2023-03-13T07:44:08.161Z,1.27
2023-03-13T07:46:36.162Z,1.33
2023-03-13T07:49:05.372Z,1.30
2023-03-13T07:51:42.923Z,1.40
2023-03-13T07:54:12.253Z,1.30
2023-03-13T07:56:40.547Z,1.40
2023-03-13T07:59:08.333Z,1.20
2023-03-13T08:01:36.316Z,1.90
2023-03-13T08:04:05.957Z,1.60
2023-03-13T08:06:35.620Z,1.30
2023-03-13T08:09:03.678Z,1.40
2023-03-13T08:11:31.548Z,1.30
2023-03-13T08:13:59.520Z,1.60
2023-03-13T08:16:29.288Z,1.60
2023-03-13T08:18:59.630Z,1.55
2023-03-13T08:21:30.220Z,1.70
2023-03-13T08:24:00.180Z,1.60
2023-03-13T08:26:29.602Z,1.65
2023-03-13T08:28:59.802Z,1.40
2023-03-13T08:31:29.161Z,1.50
2023-03-13T08:33:57.080Z,1.40
2023-03-13T08:36:27.947Z,1.33
2023-03-13T08:39:02.249Z,1.63
2023-03-13T08:41:35.974Z,1.42
2023-03-13T08:44:04.803Z,1.60
2023-03-13T08:46:35.478Z,2.42
2023-03-13T08:49:03.600Z,1.70
2023-03-13T08:51:31.736Z,1.60
2023-03-13T08:54:01.994Z,1.77
2023-03-13T08:56:31.632Z,1.70
2023-03-13T08:59:01.084Z,1.73
2023-03-13T09:01:30.510Z,1.60
2023-03-13T09:04:00.638Z,1.60
2023-03-13T09:06:30.799Z,1.48
2023-03-13T09:09:00.191Z,1.65
2023-03-13T09:11:28.678Z,1.67
2023-03-13T09:13:59.469Z,1.50
2023-03-13T09:16:29.573Z,1.45
2023-03-13T09:18:58.724Z,1.50
2023-03-13T09:21:28.570Z,1.67
2023-03-13T09:23:57.085Z,1.77
2023-03-13T09:26:28.031Z,1.90
2023-03-13T09:28:56.430Z,1.80
2023-03-13T09:31:26.641Z,1.92
2023-03-13T09:33:54.815Z,2.17
2023-03-13T09:36:23.969Z,1.73
2023-03-13T09:38:52.675Z,2.10
2023-03-13T09:41:25.397Z,2.88
2023-03-13T09:46:28.966Z,2.30
2023-03-13T09:49:00.589Z,2.03
2023-03-13T09:51:32.044Z,2.10
2023-03-13T09:54:03.166Z,2.53
2023-03-13T09:56:35.654Z,3.22
2023-03-13T09:59:16.252Z,2.70
2023-03-13T10:01:45.574Z,2.60
2023-03-13T10:04:29.613Z,2.47
2023-03-13T10:06:58.014Z,2.50
2023-03-13T10:09:30.568Z,2.97
2023-03-13T10:12:05.741Z,2.40
2023-03-13T10:14:44.207Z,2.63
2023-03-13T10:17:21.329Z,2.97
2023-03-13T10:19:56.664Z,2.33
2023-03-13T10:22:30.089Z,1.90
2023-03-13T10:25:01.238Z,2.30
2023-03-13T10:27:29.036Z,2.00
2023-03-13T10:29:58.649Z,1.90
2023-03-13T10:32:28.289Z,2.40
2023-03-13T10:35:00.462Z,2.10
2023-03-13T10:37:30.558Z,2.50
2023-03-13T10:40:14.580Z,2.05
2023-03-13T10:42:46.343Z,2.30
2023-03-13T10:45:20.010Z,2.25
2023-03-13T10:47:55.440Z,2.58
2023-03-13T10:50:25.774Z,2.40
2023-03-13T10:52:54.732Z,2.50
2023-03-13T10:55:25.145Z,2.60
2023-03-13T10:57:59.862Z,2.30
2023-03-13T11:00:36.748Z,2.05
2023-03-13T11:03:07.872Z,2.10
2023-03-13T11:05:42.586Z,1.80
2023-03-13T11:08:14.383Z,2.15
2023-03-13T11:10:54.802Z,1.97
2023-03-13T11:13:41.886Z,2.00
2023-03-13T11:16:20.277Z,2.00
2023-03-13T11:19:10.156Z,2.00
2023-03-13T11:21:45.584Z,2.35
2023-03-13T11:24:21.275Z,1.80
2023-03-13T11:27:04.837Z,1.75
2023-03-13T11:29:43.713Z,2.00
2023-03-13T11:32:24.151Z,1.90
2023-03-13T11:34:55.231Z,2.05
2023-03-13T11:37:24.128Z,1.90
2023-03-13T11:40:00.504Z,1.90
2023-03-13T11:42:48.486Z,2.35
2023-03-13T11:45:33.912Z,2.25
2023-03-13T11:48:10.853Z,2.22
2023-03-13T11:50:47.400Z,3.03
2023-03-13T11:53:29.800Z,2.30
2023-03-13T11:56:06.826Z,2.85
2023-03-13T11:58:47.997Z,2.40
2023-03-13T12:01:18.590Z,2.30
2023-03-13T12:03:58.278Z,1.73
2023-03-13T12:06:32.041Z,1.70
2023-03-13T12:09:05.934Z,1.70
2023-03-13T12:11:38.922Z,1.60
2023-03-13T12:14:11.988Z,1.40
2023-03-13T12:16:44.469Z,1.50
2023-03-13T12:19:18.815Z,1.33
2023-03-13T12:21:50.378Z,1.58
2023-03-13T12:24:28.442Z,1.55
2023-03-13T12:27:02.542Z,1.50
2023-03-13T12:29:46.286Z,1.58
2023-03-13T12:32:19.143Z,1.80
2023-03-13T12:34:56.893Z,1.52
2023-03-13T12:37:31.960Z,1.70
2023-03-13T12:40:09.825Z,1.98
2023-03-13T12:42:46.372Z,1.40
2023-03-13T12:45:18.678Z,1.58
2023-03-13T12:48:18.202Z,1.52
2023-03-13T12:51:04.601Z,1.75
2023-03-13T12:53:46.525Z,1.60
2023-03-13T12:56:36.146Z,1.50
2023-03-13T12:59:08.154Z,1.70
2023-03-13T13:01:41.086Z,2.00
2023-03-13T13:04:13.941Z,1.80
2023-03-13T13:07:00.638Z,1.77
2023-03-13T13:09:30.787Z,1.70
2023-03-13T13:12:01.560Z,1.65
2023-03-13T13:15:04.735Z,1.75
2023-03-13T13:17:56.437Z,2.03
2023-03-13T13:20:46.211Z,1.70
2023-03-13T13:23:34.804Z,1.65
2023-03-13T13:26:37.451Z,2.70
2023-03-13T13:29:57.966Z,2.22
2023-03-13T13:32:46.539Z,2.30
2023-03-13T13:35:34.406Z,1.70
2023-03-13T13:38:40.005Z,1.90
2023-03-13T13:41:37.796Z,2.10
2023-03-13T13:44:24.322Z,1.70
2023-03-13T13:46:52.273Z,1.77
2023-03-13T13:49:21.073Z,1.60
2023-03-13T13:52:21.235Z,1.67
2023-03-13T13:54:57.794Z,1.60
2023-03-13T13:57:29.016Z,1.50
2023-03-13T14:00:05.229Z,1.40
2023-03-13T14:02:36.274Z,1.50
2023-03-13T14:05:08.137Z,1.50
2023-03-13T14:07:49.343Z,1.60
2023-03-13T14:10:26.902Z,1.30
2023-03-13T14:12:57.557Z,1.40
2023-03-13T14:15:26.682Z,1.80
2023-03-13T14:17:56.207Z,1.70
2023-03-13T14:20:33.605Z,1.55
2023-03-13T14:23:03.991Z,1.80
2023-03-13T14:25:43.879Z,1.45
2023-03-13T14:28:24.228Z,1.67
2023-03-13T14:30:54.030Z,1.50
2023-03-13T14:33:22.035Z,1.38
2023-03-13T14:35:50.430Z,1.58
2023-03-13T14:38:20.774Z,1.58
2023-03-13T14:40:49.094Z,1.60
2023-03-13T14:43:26.634Z,1.70
2023-03-13T14:45:55.288Z,1.63
2023-03-13T14:48:24.702Z,1.70
2023-03-13T14:51:14.205Z,1.40
2023-03-13T14:53:55.392Z,1.88
2023-03-13T14:56:33.033Z,1.65
2023-03-13T14:59:09.930Z,1.48
2023-03-13T15:01:37.787Z,1.50
2023-03-13T15:04:05.895Z,1.50
2023-03-13T15:06:33.882Z,1.77
2023-03-13T15:09:20.048Z,1.58
2023-03-13T15:11:56.990Z,1.15
2023-03-13T15:14:38.066Z,1.67
2023-03-13T15:17:14.005Z,2.35
2023-03-13T15:19:42.141Z,1.48
2023-03-13T15:22:15.025Z,1.40
2023-03-13T15:24:45.254Z,1.40
2023-03-13T15:27:17.908Z,1.73
2023-03-13T15:29:47.992Z,1.35
2023-03-13T15:32:24.922Z,1.48
2023-03-13T15:34:57.247Z,1.40
2023-03-13T15:37:25.624Z,1.27
2023-03-13T15:39:54.270Z,1.30
2023-03-13T15:42:22.354Z,1.60
2023-03-13T15:44:51.514Z,1.88
2023-03-13T15:47:21.801Z,1.38
2023-03-13T15:49:49.782Z,1.00
2023-03-13T15:52:19.129Z,1.30
2023-03-13T15:54:47.196Z,1.30
2023-03-13T15:57:16.551Z,0.90
2023-03-13T15:59:45.167Z,1.10
2023-03-13T16:02:19.132Z,1.33
2023-03-13T16:04:47.603Z,1.27
2023-03-13T16:07:17.180Z,1.17
2023-03-13T16:09:45.448Z,1.30
2023-03-13T16:12:13.869Z,1.52
2023-03-13T16:14:43.445Z,1.70
2023-03-13T16:17:16.263Z,1.00
2023-03-13T16:19:46.189Z,1.17
2023-03-13T16:22:14.761Z,1.20
2023-03-13T16:24:43.076Z,1.10
2023-03-13T16:27:18.588Z,1.38
2023-03-13T16:29:47.041Z,1.05
2023-03-13T16:32:18.573Z,0.90
2023-03-13T16:34:47.764Z,1.25
2023-03-13T16:37:18.187Z,1.08
2023-03-13T16:39:48.137Z,1.17
2023-03-13T16:42:15.973Z,1.20
2023-03-13T16:44:43.732Z,1.00
2023-03-13T16:47:22.368Z,1.00
2023-03-13T16:49:51.787Z,1.10
2023-03-13T16:52:20.842Z,1.20
2023-03-13T16:54:48.703Z,1.13
2023-03-13T16:57:19.515Z,1.40
2023-03-13T16:59:47.317Z,1.20
2023-03-13T17:02:17.368Z,1.10
2023-03-13T17:04:46.112Z,1.42
2023-03-13T17:07:20.538Z,1.52
2023-03-13T17:09:48.616Z,1.17
2023-03-13T17:12:16.654Z,1.52
2023-03-13T17:14:44.645Z,1.60
2023-03-13T17:17:15.833Z,1.60
2023-03-13T17:19:43.709Z,1.73
2023-03-13T17:22:13.406Z,1.30
2023-03-13T17:24:43.828Z,1.38
2023-03-13T17:27:14.335Z,1.33
2023-03-13T17:29:42.733Z,1.35
2023-03-13T17:32:11.672Z,1.30
2023-03-13T17:34:39.798Z,1.40
2023-03-13T17:37:15.869Z,1.52
2023-03-13T17:39:45.634Z,1.50
2023-03-13T17:42:13.416Z,1.30
2023-03-13T17:44:42.182Z,1.30
2023-03-13T17:47:15.624Z,1.45
2023-03-13T17:49:44.186Z,2.10
2023-03-13T17:52:14.937Z,4.00
2023-03-13T17:54:43.412Z,2.08
2023-03-13T17:57:18.140Z,2.10
2023-03-13T17:59:47.481Z,1.80
2023-03-13T18:02:16.693Z,3.55
2023-03-13T18:04:45.659Z,2.00
2023-03-13T18:07:22.378Z,1.60
2023-03-13T18:09:50.276Z,2.20
2023-03-13T18:12:19.933Z,1.95
2023-03-13T18:14:47.859Z,2.20
2023-03-13T18:17:18.072Z,2.10
2023-03-13T18:19:46.236Z,4.75
2023-03-13T18:22:15.723Z,3.30
2023-03-13T18:24:43.860Z,1.98
2023-03-13T18:27:13.640Z,2.13
2023-03-13T18:29:43.703Z,2.10
2023-03-13T18:32:14.356Z,2.10
2023-03-13T18:34:42.202Z,2.53
2023-03-13T18:37:20.413Z,1.40
2023-03-13T18:39:50.004Z,1.45
2023-03-13T18:42:17.980Z,1.50
2023-03-13T18:44:47.113Z,1.30
2023-03-13T18:47:17.079Z,1.83
2023-03-13T18:49:44.930Z,5.95
2023-03-13T18:52:13.065Z,5.97
2023-03-13T18:54:40.995Z,5.18
2023-03-13T18:57:13.984Z,2.65
2023-03-13T18:59:41.763Z,4.47
2023-03-13T19:02:14.352Z,2.47
2023-03-13T19:07:15.593Z,1.52
2023-03-13T19:09:46.433Z,1.10
2023-03-13T19:12:15.436Z,1.30
2023-03-13T19:14:43.658Z,1.30
2023-03-13T19:17:20.216Z,0.70
2023-03-13T19:19:48.231Z,0.90
2023-03-13T19:22:15.967Z,0.90
2023-03-13T19:24:43.819Z,1.00
2023-03-13T19:27:14.135Z,0.90
2023-03-13T19:29:41.852Z,1.10
2023-03-13T19:32:15.348Z,1.00
2023-03-13T19:34:43.369Z,0.93
2023-03-13T19:37:11.726Z,1.00
2023-03-13T19:39:39.501Z,0.75
2023-03-13T19:42:08.264Z,0.95
2023-03-13T19:44:36.976Z,1.05
2023-03-13T19:47:05.269Z,1.00
2023-03-13T19:49:36.984Z,1.00
2023-03-13T19:52:04.988Z,0.70
2023-03-13T19:54:32.748Z,0.90
2023-03-13T19:57:00.547Z,0.80
2023-03-13T19:59:28.461Z,0.80
2023-03-13T20:01:56.471Z,1.02
2023-03-13T20:04:25.158Z,1.05
2023-03-13T20:06:54.461Z,2.10
2023-03-13T20:09:23.150Z,6.85
2023-03-13T20:11:50.882Z,3.58
2023-03-13T20:14:18.775Z,1.50
2023-03-13T20:16:48.881Z,1.08
2023-03-13T20:19:17.262Z,1.65
2023-03-13T20:21:46.640Z,6.00
2023-03-13T20:24:16.351Z,5.13
2023-03-13T20:26:44.131Z,3.67
2023-03-13T20:29:11.960Z,3.20
2023-03-13T20:31:39.824Z,3.55
2023-03-13T20:34:07.992Z,3.40
2023-03-13T20:36:35.735Z,3.50
2023-03-13T20:39:03.776Z,1.70
2023-03-13T20:41:32.802Z,1.50
2023-03-13T20:44:00.650Z,1.27
2023-03-13T20:46:28.579Z,1.02
2023-03-13T20:48:58.855Z,1.10
2023-03-13T20:51:27.729Z,1.13
2023-03-13T20:53:55.537Z,1.02
2023-03-13T20:56:23.334Z,1.20
2023-03-13T20:58:52.524Z,1.05
2023-03-13T21:01:21.706Z,1.05
2023-03-13T21:03:50.052Z,1.23
2023-03-13T21:06:19.179Z,1.20
2023-03-13T21:08:47.716Z,1.00
2023-03-13T21:11:17.291Z,1.50
2023-03-13T21:13:45.419Z,1.20
2023-03-13T21:16:14.814Z,2.00
2023-03-13T21:18:43.147Z,1.48
2023-03-13T21:21:13.271Z,1.10
2023-03-13T21:23:41.045Z,1.27
2023-03-13T21:26:08.838Z,0.90
2023-03-13T21:28:36.712Z,1.27
2023-03-13T21:31:10.137Z,1.20
2023-03-13T21:33:39.692Z,1.08
2023-03-13T21:36:08.315Z,1.40
2023-03-13T21:38:36.604Z,1.35
2023-03-13T21:41:08.489Z,1.08
2023-03-13T21:43:37.551Z,1.07
2023-03-13T21:46:05.684Z,1.15
2023-03-13T21:48:33.483Z,1.13
2023-03-13T21:51:02.657Z,1.23
2023-03-13T21:53:30.759Z,1.00
2023-03-13T21:55:58.511Z,1.10
2023-03-13T21:58:26.453Z,1.15
2023-03-13T22:00:54.994Z,1.00
2023-03-13T22:03:23.207Z,1.23
2023-03-13T22:05:51.473Z,1.30
2023-03-13T22:08:20.652Z,1.08
2023-03-13T22:10:50.177Z,1.35
2023-03-13T22:13:18.293Z,1.35
2023-03-13T22:15:47.218Z,1.30
2023-03-13T22:18:15.587Z,1.30
2023-03-13T22:20:43.820Z,1.40
2023-03-13T22:23:12.053Z,1.40
2023-03-13T22:25:42.411Z,1.15
2023-03-13T22:28:10.520Z,1.30
2023-03-13T22:30:39.671Z,1.30
2023-03-13T22:33:07.945Z,1.40
2023-03-13T22:35:35.985Z,1.40
2023-03-13T22:38:03.808Z,1.40
2023-03-13T22:40:31.739Z,1.30
2023-03-13T22:43:01.098Z,1.15
2023-03-13T22:45:30.448Z,1.10
2023-03-13T22:47:58.165Z,1.33
2023-03-13T22:50:26.055Z,1.30
2023-03-13T22:52:54.003Z,1.05
2023-03-13T22:55:21.799Z,1.40
2023-03-13T22:57:49.490Z,1.35
2023-03-13T23:00:21.108Z,1.65
2023-03-13T23:02:49.616Z,2.45
2023-03-13T23:05:18.072Z,1.30
2023-03-13T23:07:45.908Z,1.20
2023-03-13T23:10:14.083Z,1.00
2023-03-13T23:12:42.226Z,1.35
2023-03-13T23:15:12.383Z,1.08
2023-03-13T23:17:41.531Z,0.95
2023-03-13T23:20:13.203Z,0.90
2023-03-13T23:22:41.786Z,0.90
2023-03-13T23:25:11.021Z,0.80
2023-03-13T23:27:38.790Z,0.90
2023-03-13T23:30:09.544Z,0.90
2023-03-13T23:32:38.678Z,1.00
2023-03-13T23:35:10.851Z,0.98
2023-03-13T23:37:38.648Z,1.00
2023-03-13T23:40:10.327Z,0.80
2023-03-13T23:42:38.611Z,0.95
2023-03-13T23:45:07.672Z,1.00
2023-03-13T23:47:35.385Z,0.90
2023-03-13T23:50:05.293Z,1.20
2023-03-13T23:52:35.579Z,1.00
2023-03-13T23:55:04.403Z,0.98
2023-03-13T23:57:32.152Z,1.00
